Terminal Aerodrome Forecast
Issued by NWS Sterling, VA

Current Version | Previous Version | Text Only | Print | Product List | Glossary Off
Versions: 1 2 3 4 5 6 7 8 9 10 11 12 13 14 15 16 17 18 19 20 21 22

000
FTUS41 KLWX 200600 AAA
TAFIAD
TAF AMD
KIAD 200603Z 2006/2112 20008KT P6SM SCT090
     FM201400 26007KT P6SM SCT250
     FM201600 27011G20KT P6SM BKN250
     FM202100 28010KT P6SM FEW250=

USA.gov is the U.S. government's official web portal to all federal, state and local government web resources and services.